This is the latest recevied weather packets stored in our database for station/object SQ5LTL-2. If no packets are shown the sender has not sent any weather packets the latest 10 day(s).
| Time | Temp. | Humidity | Pressure | Rain* | Wind** | Luminosity | Snow |
|---|---|---|---|---|---|---|---|
| 1777439733 | 2.22° C | 68% | 1026.9 hPa | 0 mm | - | 120 W/m² | - |
| 1777439430 | 2.22° C | 67% | 1026.9 hPa | 0 mm | - | 112 W/m² | - |
| 1777439129 | 1.67° C | 68% | 1026.8 hPa | 0 mm | - | 103 W/m² | - |
| 1777438827 | 1.67° C | 68% | 1026.8 hPa | 0 mm | - | 91 W/m² | - |
| 1777438526 | 1.67° C | 69% | 1026.8 hPa | 0 mm | - | 80 W/m² | - |
| 1777438225 | 1.11° C | 69% | 1026.8 hPa | 0 mm | - | 70 W/m² | - |
| 1777437320 | 1.11° C | 71% | 1026.7 hPa | 0 mm | - | 74 W/m² | - |
| 1777437019 | 1.11° C | 71% | 1026.7 hPa | 0 mm | - | 69 W/m² | - |
| 1777435533 | -0.56° C | 76% | 1026.5 hPa | 0 mm | - | 38 W/m² | - |
| 1777434929 | -1.67° C | 81% | 1026.5 hPa | 0 mm | - | 27 W/m² | - |
| 1777433422 | -3.33° C | 88% | 1026.3 hPa | 0 mm | - | 9 W/m² | - |
| 1777431333 | -3.89° C | 89% | 1026.2 hPa | 0 mm | - | 0 W/m² | - |
| 1777431031 | -3.89° C | 89% | 1026.3 hPa | 0 mm | - | 0 W/m² | - |
| 1777427131 | -2.78° C | 87% | 1026 hPa | 0 mm | - | 0 W/m² | - |
| 1777421725 | -1.67° C | 85% | 1025.8 hPa | 0 mm | - | 0 W/m² | - |
| 1777420520 | -1.11° C | 81% | 1025.7 hPa | 0 mm | - | 0 W/m² | - |
| 1777419032 | 0.56° C | 74% | 1025.5 hPa | 0 mm | - | 0 W/m² | - |
| 1777416018 | 3.33° C | 66% | 1025.5 hPa | 0 mm | - | 0 W/m² | - |
| 1777415435 | 3.89° C | 65% | 1025.6 hPa | 0 mm | - | 0 W/m² | - |
| 1777414531 | 3.89° C | 65% | 1025.4 hPa | 0 mm | - | 0 W/m² | - |
| 1777414229 | 4.44° C | 64% | 1025.5 hPa | 0 mm | - | 0 W/m² | - |
| 1777413968 | 4.44° C | 64% | 1025.4 hPa | 0 mm | - | 0 W/m² | - |
| 1777411516 | 3.89° C | 66% | 1025.5 hPa | 0 mm | - | 0 W/m² | - |
| 1777411235 | 3.33° C | 68% | 1025.5 hPa | 0 mm | - | 0 W/m² | - |
| 1777410933 | 3.33° C | 68% | 1025.4 hPa | 0 mm | - | 0 W/m² | - |
* Rain latest hour (hover to see other rain measurements)
** Current wind speed in m/s (hover to see current wind gust speed)